Time;durP1;ratioP1;P1;durP2;ratioP2;P2;SDS_P1;SDS_P2;PMS_P1;PMS_P2;Temp;Humidity;BMP_temperature;BMP_pressure;BME280_temperature;BME280_humidity;BME280_pressure;Samples;Min_cycle;Max_cycle;Signal;HPM_P1;HPM_P2
2023/04/08 00:00:05;;;;;;;;;20.75;18.00;;;;;9.64;81.21;102274.41;5010150;28;10861;-65
2023/04/08 00:02:35;;;;;;;;;18.50;16.25;;;;;9.62;81.26;102281.78;5010317;28;10827;-65
2023/04/08 00:05:02;;;;;;;;;26.25;16.50;;;;;9.60;81.19;102281.09;5009368;28;10844;-65
2023/04/08 00:07:29;;;;;;;;;23.00;17.00;;;;;9.55;81.05;102281.53;5008682;28;11623;-66
2023/04/08 00:09:55;;;;;;;;;16.25;14.50;;;;;9.52;80.96;102284.56;5010228;28;10959;-65
2023/04/08 00:12:22;;;;;;;;;21.00;19.25;;;;;9.52;81.37;102279.19;5009951;28;11114;-65
2023/04/08 00:14:48;;;;;;;;;18.25;14.00;;;;;9.49;81.36;102279.47;5008345;28;10991;-66
2023/04/08 00:17:15;;;;;;;;;16.00;15.50;;;;;9.48;80.66;102283.16;5009558;28;11000;-66
2023/04/08 00:19:42;;;;;;;;;23.50;18.50;;;;;9.45;80.80;102279.94;5008974;28;10839;-65
2023/04/08 00:22:08;;;;;;;;;21.00;18.25;;;;;9.41;80.81;102287.47;5010612;28;11120;-65
2023/04/08 00:24:35;;;;;;;;;22.25;18.50;;;;;9.37;80.54;102283.38;4992636;28;11106;-65
2023/04/08 00:27:02;;;;;;;;;21.50;16.50;;;;;9.34;81.15;102287.19;4992012;28;10902;-66
2023/04/08 00:29:29;;;;;;;;;22.25;16.75;;;;;9.32;81.12;102288.38;5007380;28;10902;-66
2023/04/08 00:31:56;;;;;;;;;16.75;16.00;;;;;9.28;80.73;102282.44;4998212;28;10924;-66
2023/04/08 00:34:23;;;;;;;;;18.50;14.75;;;;;9.25;80.38;102281.91;4991923;28;10876;-65
2023/04/08 00:36:49;;;;;;;;;23.00;19.00;;;;;9.21;80.60;102275.97;4985771;28;10993;-66
2023/04/08 00:39:16;;;;;;;;;23.50;22.00;;;;;9.19;80.77;102277.94;5008305;28;11066;-65
2023/04/08 00:41:43;;;;;;;;;19.25;17.25;;;;;9.18;80.32;102281.63;4980546;28;11058;-66
2023/04/08 00:44:09;;;;;;;;;20.75;13.50;;;;;9.15;80.19;102281.94;5006809;28;11030;-66
2023/04/08 00:46:38;;;;;;;;;22.25;18.75;;;;;9.12;80.42;102287.63;5010242;28;11092;-66
2023/04/08 00:49:06;;;;;;;;;19.00;14.50;;;;;9.10;80.35;102286.91;4991311;28;11241;-66
2023/04/08 00:51:35;;;;;;;;;20.25;18.75;;;;;9.09;80.49;102285.22;4992644;28;11298;-65
2023/04/08 00:54:05;;;;;;;;;18.50;14.50;;;;;9.08;80.61;102283.53;5008959;28;11137;-66
2023/04/08 00:56:33;;;;;;;;;23.75;16.25;;;;;9.03;80.01;102280.44;5007369;28;11069;-65
2023/04/08 00:59:00;;;;;;;;;20.00;20.00;;;;;9.02;80.20;102286.81;5006127;28;11022;-65
2023/04/08 01:01:57;;;;;;;;;20.50;17.00;;;;;8.99;80.54;102287.09;5009274;28;11163;-65
2023/04/08 01:04:42;;;;;;;;;18.00;18.00;;;;;8.95;79.87;102293.75;5008855;28;11155;-65
2023/04/08 01:07:16;;;;;;;;;19.75;15.50;;;;;8.89;79.90;102289.84;5004142;28;11195;-65
2023/04/08 01:09:51;;;;;;;;;16.00;14.00;;;;;8.87;80.20;102284.63;5008076;28;11119;-66
2023/04/08 01:12:26;;;;;;;;;24.50;19.75;;;;;8.88;80.33;102290.84;4989451;28;11167;-65
2023/04/08 01:15:00;;;;;;;;;22.50;21.25;;;;;8.82;80.04;102286.88;5006497;28;11163;-66
2023/04/08 01:17:28;;;;;;;;;19.25;17.00;;;;;8.80;80.15;102290.72;4993906;28;11306;-66
2023/04/08 01:19:58;;;;;;;;;19.50;17.75;;;;;8.79;79.50;102295.25;4976895;28;11340;-66
2023/04/08 01:22:42;;;;;;;;;18.50;18.00;;;;;8.77;79.68;102291.84;4994583;28;11877;-65
2023/04/08 01:25:16;;;;;;;;;28.00;19.00;;;;;8.72;80.04;102296.84;4988333;28;11346;-67
2023/04/08 01:27:43;;;;;;;;;19.25;17.00;;;;;8.69;79.81;102288.22;5012101;28;11645;-66
2023/04/08 01:30:10;;;;;;;;;21.25;19.50;;;;;8.67;79.59;102291.06;4994976;28;11312;-66
2023/04/08 01:32:38;;;;;;;;;24.50;18.25;;;;;8.64;80.23;102300.25;5012290;28;12342;-66
2023/04/08 01:35:06;;;;;;;;;17.75;16.00;;;;;8.63;79.88;102292.34;4994845;28;12145;-66
2023/04/08 01:37:34;;;;;;;;;24.00;20.75;;;;;8.63;80.11;102292.34;5011347;28;11325;-66
2023/04/08 01:40:02;;;;;;;;;24.50;20.25;;;;;8.63;79.75;102293.19;5010224;28;11253;-66
2023/04/08 01:42:28;;;;;;;;;23.75;18.00;;;;;8.64;79.87;102292.19;4994891;28;11206;-66
2023/04/08 01:44:58;;;;;;;;;18.00;17.00;;;;;8.68;79.99;102305.31;5009855;28;11243;-66
2023/04/08 01:47:25;;;;;;;;;18.00;15.75;;;;;8.62;79.75;102299.53;5012213;28;12054;-66
2023/04/08 01:49:54;;;;;;;;;23.25;18.75;;;;;8.60;80.49;102295.31;4987591;28;11091;-66
2023/04/08 01:52:22;;;;;;;;;21.00;20.00;;;;;8.63;80.87;102308.44;5010469;28;11261;-66
2023/04/08 01:54:48;;;;;;;;;15.00;15.00;;;;;8.64;80.83;102304.78;4993392;28;11263;-66
2023/04/08 01:57:29;;;;;;;;;21.00;20.50;;;;;8.63;80.89;102303.94;5010675;28;11276;-65
2023/04/08 01:59:59;;;;;;;;;15.00;13.50;;;;;8.63;80.70;102305.78;5004274;28;11237;-67
2023/04/08 02:02:27;;;;;;;;;14.50;13.25;;;;;8.62;80.70;102307.56;4995205;28;11063;-65
2023/04/08 02:04:54;;;;;;;;;19.75;15.00;;;;;8.61;80.80;102313.94;4994538;28;11090;-66
2023/04/08 02:07:21;;;;;;;;;16.00;14.50;;;;;8.58;81.00;102308.88;4991987;28;11070;-64
2023/04/08 02:09:47;;;;;;;;;20.50;17.75;;;;;8.56;80.61;102307.34;4994517;28;12011;-67
2023/04/08 02:12:14;;;;;;;;;20.75;18.75;;;;;8.52;81.08;102312.13;5009928;28;12543;-66
2023/04/08 02:14:40;;;;;;;;;20.00;19.00;;;;;8.48;80.81;102308.06;4993582;28;12106;-66
2023/04/08 02:17:10;;;;;;;;;18.25;14.25;;;;;8.46;81.26;102311.88;5012206;28;11309;-66
2023/04/08 02:20:02;;;;;;;;;21.25;19.75;;;;;8.44;81.17;102313.84;4993528;28;11343;-67
2023/04/08 02:22:46;;;;;;;;;22.75;20.00;;;;;8.41;81.40;102309.63;5007887;28;12117;-66
2023/04/08 02:25:15;;;;;;;;;16.75;16.75;;;;;8.37;81.31;102308.22;4987685;28;11554;-67
2023/04/08 02:27:43;;;;;;;;;18.00;17.00;;;;;8.34;81.46;102314.66;4991041;28;12232;-66
2023/04/08 02:30:11;;;;;;;;;15.25;13.00;;;;;8.35;81.78;102323.59;5007258;28;11623;-66
2023/04/08 02:32:38;;;;;;;;;14.75;13.25;;;;;8.36;81.86;102323.44;4992127;28;11356;-66
2023/04/08 02:35:06;;;;;;;;;15.25;12.00;;;;;8.36;82.03;102320.75;5010741;28;11154;-65
2023/04/08 02:37:33;;;;;;;;;18.50;16.00;;;;;8.36;82.19;102323.44;5011728;28;11467;-65
2023/04/08 02:39:59;;;;;;;;;23.00;16.50;;;;;8.34;81.77;102328.09;5009841;28;11306;-66
2023/04/08 02:42:26;;;;;;;;;15.50;14.00;;;;;8.31;81.79;102328.41;4992576;28;11246;-65
2023/04/08 02:44:52;;;;;;;;;19.75;15.50;;;;;8.30;81.75;102325.84;4992937;28;11482;-66
2023/04/08 02:47:19;;;;;;;;;26.50;18.75;;;;;8.25;81.94;102325.41;4990950;28;11762;-66
2023/04/08 02:49:46;;;;;;;;;19.00;17.75;;;;;8.24;81.55;102340.66;5009578;28;11239;-65
2023/04/08 02:52:12;;;;;;;;;23.25;16.50;;;;;8.22;82.05;102344.47;4994664;28;11273;-66
2023/04/08 02:54:39;;;;;;;;;25.25;18.75;;;;;8.20;81.92;102341.94;5009907;28;11336;-67
2023/04/08 02:57:05;;;;;;;;;19.00;16.50;;;;;8.19;82.28;102351.00;4993280;28;11246;-65
2023/04/08 02:59:32;;;;;;;;;23.00;20.50;;;;;8.21;81.95;102349.00;5011448;28;11304;-66
2023/04/08 03:01:59;;;;;;;;;21.25;19.25;;;;;8.21;82.06;102346.31;5010335;28;11522;-66
2023/04/08 03:04:25;;;;;;;;;18.25;16.75;;;;;8.22;81.73;102355.22;4992135;28;11555;-69
2023/04/08 03:06:52;;;;;;;;;21.25;16.75;;;;;8.21;82.26;102349.00;5010340;28;11320;-66
2023/04/08 03:09:18;;;;;;;;;20.50;17.75;;;;;8.20;81.71;102350.00;5011289;28;11386;-66
2023/04/08 03:11:51;;;;;;;;;17.75;17.25;;;;;8.16;81.89;102353.94;4994066;28;11598;-66
2023/04/08 03:14:17;;;;;;;;;20.75;18.75;;;;;8.16;81.76;102351.25;5008610;28;11547;-66
2023/04/08 03:16:44;;;;;;;;;26.25;18.50;;;;;8.15;81.61;102350.41;5001749;28;11555;-66
2023/04/08 03:19:10;;;;;;;;;16.25;16.25;;;;;8.15;81.70;102349.56;4993037;28;11384;-65
2023/04/08 03:21:37;;;;;;;;;19.25;16.25;;;;;8.14;82.20;102355.91;5011316;28;11337;-65
2023/04/08 03:24:03;;;;;;;;;19.50;17.50;;;;;8.14;82.25;102355.91;5009294;28;11315;-66
2023/04/08 03:26:30;;;;;;;;;17.00;14.75;;;;;8.10;82.31;102351.81;5010061;28;11249;-66
2023/04/08 03:28:56;;;;;;;;;14.25;13.00;;;;;8.09;81.83;102352.81;5008153;28;11538;-66
2023/04/08 03:31:23;;;;;;;;;16.25;16.25;;;;;8.07;81.63;102354.81;5011138;28;11299;-67
2023/04/08 03:33:49;;;;;;;;;19.75;18.25;;;;;8.03;81.61;102356.06;5010056;28;11553;-66
2023/04/08 03:36:16;;;;;;;;;18.00;18.00;;;;;7.95;81.57;102350.56;4986534;28;11292;-67
2023/04/08 03:38:43;;;;;;;;;22.00;18.75;;;;;7.92;81.60;102352.53;5008491;28;11595;-66
2023/04/08 03:41:10;;;;;;;;;21.25;20.75;;;;;7.88;80.74;102359.16;5001119;28;11513;-65
2023/04/08 03:43:36;;;;;;;;;23.50;16.75;;;;;7.85;82.12;102348.69;5010216;28;11536;-66
2023/04/08 03:46:03;;;;;;;;;25.50;18.25;;;;;7.85;81.75;102359.41;5008429;28;11543;-66
2023/04/08 03:48:30;;;;;;;;;25.75;22.25;;;;;7.82;81.45;102351.69;5010134;28;11685;-66
2023/04/08 03:50:57;;;;;;;;;28.50;24.50;;;;;7.80;80.89;102359.00;5007342;28;11618;-66
2023/04/08 03:53:28;;;;;;;;;22.25;20.00;;;;;7.79;81.48;102362.66;5010844;28;11570;-66
2023/04/08 03:55:55;;;;;;;;;21.25;20.00;;;;;7.74;81.07;102364.94;5009453;28;11582;-66
2023/04/08 03:58:22;;;;;;;;;18.00;17.25;;;;;7.64;81.27;102364.03;4992386;28;11640;-65
2023/04/08 04:00:49;;;;;;;;;19.75;18.00;;;;;7.61;81.25;102365.16;4990139;28;11537;-66
2023/04/08 04:03:15;;;;;;;;;24.00;20.50;;;;;7.52;81.00;102366.00;5008705;28;11550;-66
2023/04/08 04:05:42;;;;;;;;;27.00;20.00;;;;;7.44;80.88;102366.66;5009033;28;11572;-67
2023/04/08 04:08:09;;;;;;;;;26.00;21.25;;;;;7.34;81.44;102368.47;4992532;28;11576;-66
2023/04/08 04:10:35;;;;;;;;;24.00;19.00;;;;;7.34;81.82;102370.31;5009814;28;12303;-67
2023/04/08 04:13:05;;;;;;;;;20.75;20.50;;;;;7.37;81.78;102364.66;5008192;28;11627;-66
2023/04/08 04:15:32;;;;;;;;;21.25;20.00;;;;;7.43;81.43;102373.03;5008401;28;11606;-67
2023/04/08 04:17:58;;;;;;;;;17.75;15.00;;;;;7.38;81.54;102375.25;5009349;28;11554;-66
2023/04/08 04:20:25;;;;;;;;;24.50;22.25;;;;;7.36;81.61;102373.69;5008931;28;11545;-66
2023/04/08 04:22:51;;;;;;;;;21.25;20.50;;;;;7.33;80.97;102377.50;5004461;28;11550;-66
2023/04/08 04:25:18;;;;;;;;;20.50;18.75;;;;;7.31;81.28;102379.47;5008939;28;11562;-66
2023/04/08 04:27:44;;;;;;;;;23.25;19.50;;;;;7.28;80.92;102385.06;5010102;28;11514;-66
2023/04/08 04:30:14;;;;;;;;;20.00;19.00;;;;;7.26;81.21;102380.84;5008957;28;11609;-66
2023/04/08 04:32:43;;;;;;;;;17.75;16.50;;;;;7.21;81.30;102383.06;5009690;28;11575;-68
2023/04/08 04:35:11;;;;;;;;;20.25;20.00;;;;;7.15;80.86;102387.16;5004978;28;11565;-67
2023/04/08 04:37:38;;;;;;;;;26.50;21.00;;;;;7.10;81.35;102392.06;5009651;28;11606;-67
2023/04/08 04:40:05;;;;;;;;;20.50;18.50;;;;;7.05;81.84;102388.91;5010283;28;12335;-66
2023/04/08 04:42:32;;;;;;;;;23.00;18.75;;;;;7.07;82.02;102393.16;4992025;28;11556;-66
2023/04/08 04:44:58;;;;;;;;;14.25;12.25;;;;;7.11;81.71;102399.09;5006416;28;11550;-66
2023/04/08 04:47:25;;;;;;;;;22.50;21.75;;;;;7.14;81.78;102394.34;5010215;28;11533;-67
2023/04/08 04:49:51;;;;;;;;;20.00;18.25;;;;;7.14;81.82;102407.72;4995641;28;11552;-68
2023/04/08 04:52:18;;;;;;;;;16.75;15.50;;;;;7.15;81.65;102397.84;5014547;28;12310;-67
2023/04/08 04:54:44;;;;;;;;;23.00;18.00;;;;;7.14;81.24;102405.03;5014417;28;11558;-67
2023/04/08 04:57:11;;;;;;;;;21.00;19.25;;;;;7.14;81.56;102412.22;5014534;28;11626;-67
2023/04/08 04:59:37;;;;;;;;;20.75;19.50;;;;;7.12;80.85;102401.63;5014364;28;11558;-67
2023/04/08 05:02:04;;;;;;;;;20.00;18.50;;;;;7.10;81.29;102405.44;5013379;28;11547;-67
2023/04/08 05:04:31;;;;;;;;;29.75;22.00;;;;;7.07;80.89;102417.25;5013390;28;11553;-66
2023/04/08 05:07:00;;;;;;;;;20.25;18.00;;;;;7.07;81.18;102406.56;4995002;28;11571;-66
2023/04/08 05:09:28;;;;;;;;;27.50;24.25;;;;;7.04;80.71;102406.81;5012699;28;11624;-67
2023/04/08 05:11:55;;;;;;;;;21.50;20.25;;;;;7.03;81.01;102412.31;5001140;28;11601;-66
2023/04/08 05:14:22;;;;;;;;;22.75;18.50;;;;;7.02;81.04;102419.50;5009762;28;11532;-67
2023/04/08 05:16:48;;;;;;;;;23.25;18.25;;;;;7.01;80.98;102420.47;5010805;28;11623;-67
2023/04/08 05:19:15;;;;;;;;;24.75;22.00;;;;;6.98;80.48;102420.75;5009990;28;11876;-67
2023/04/08 05:21:41;;;;;;;;;24.50;22.00;;;;;6.98;80.35;102425.25;4995802;28;11566;-65
2023/04/08 05:24:08;;;;;;;;;25.50;21.00;;;;;6.96;80.77;102424.53;5012618;28;11554;-66
2023/04/08 05:26:36;;;;;;;;;27.50;21.50;;;;;6.94;80.56;102425.50;5012323;28;11665;-66
2023/04/08 05:29:03;;;;;;;;;24.25;21.50;;;;;6.96;80.34;102428.03;4994980;28;11546;-66
2023/04/08 05:31:29;;;;;;;;;25.50;22.50;;;;;6.97;80.46;102424.41;5012398;28;12313;-66
2023/04/08 05:33:56;;;;;;;;;25.00;20.50;;;;;6.96;80.15;102432.56;5011289;28;11692;-66
2023/04/08 05:36:22;;;;;;;;;24.50;20.75;;;;;6.95;80.22;102437.06;4995544;28;11556;-66
2023/04/08 05:38:49;;;;;;;;;26.25;22.75;;;;;6.96;80.19;102430.72;5012943;28;11630;-67
2023/04/08 05:41:16;;;;;;;;;28.50;22.50;;;;;6.99;80.25;102437.66;5011192;28;11544;-67
2023/04/08 05:43:42;;;;;;;;;23.00;21.00;;;;;7.01;79.64;102447.25;5010757;28;11651;-66
2023/04/08 05:46:10;;;;;;;;;22.50;20.25;;;;;7.05;79.65;102447.81;5009825;28;11611;-67
2023/04/08 05:48:36;;;;;;;;;20.50;20.50;;;;;7.09;79.91;102450.13;5007420;28;11664;-67
2023/04/08 05:51:03;;;;;;;;;21.25;20.50;;;;;7.15;79.60;102454.94;5013194;28;11548;-67
2023/04/08 05:53:29;;;;;;;;;19.00;17.25;;;;;7.23;79.44;102453.44;5012274;28;11659;-67
2023/04/08 05:55:56;;;;;;;;;15.25;11.25;;;;;7.23;78.93;102456.97;5011531;28;11530;-67
2023/04/08 05:58:22;;;;;;;;;26.00;18.50;;;;;7.29;79.09;102464.47;5009646;28;11657;-66
2023/04/08 06:00:49;;;;;;;;;28.25;26.00;;;;;7.34;78.81;102470.28;5011737;28;11655;-66
2023/04/08 06:03:15;;;;;;;;;21.00;20.25;;;;;7.47;79.08;102469.22;4993160;28;11588;-66
2023/04/08 06:05:45;;;;;;;;;28.75;24.75;;;;;7.71;78.25;102474.25;5011216;28;11606;-66
2023/04/08 06:08:12;;;;;;;;;25.50;21.50;;;;;7.98;77.02;102479.84;5009043;28;11545;-67
2023/04/08 06:10:39;;;;;;;;;30.00;22.50;;;;;8.21;76.40;102483.13;5004877;28;11528;-66
2023/04/08 06:13:05;;;;;;;;;25.50;20.25;;;;;8.43;75.30;102490.13;5011834;28;12257;-68
2023/04/08 06:15:32;;;;;;;;;24.50;21.75;;;;;8.37;74.46;102480.78;5007514;28;11595;-67
2023/04/08 06:17:58;;;;;;;;;20.50;20.00;;;;;8.38;73.22;102485.16;4987726;28;11594;-67
2023/04/08 06:20:25;;;;;;;;;26.00;22.25;;;;;8.42;72.56;102491.09;4992248;28;11545;-66
2023/04/08 06:22:51;;;;;;;;;28.00;21.00;;;;;8.36;72.34;102489.78;5010426;28;11551;-66
2023/04/08 06:25:18;;;;;;;;;24.25;19.25;;;;;8.35;71.46;102490.78;5011756;28;11242;-67
2023/04/08 06:27:44;;;;;;;;;18.50;17.00;;;;;8.33;72.23;102495.44;4993240;28;11538;-67
2023/04/08 06:30:11;;;;;;;;;22.25;18.25;;;;;8.34;71.47;102502.47;5010901;28;11535;-66
2023/04/08 06:32:37;;;;;;;;;20.75;15.00;;;;;8.33;71.38;102497.28;4994871;28;11612;-66
2023/04/08 06:35:06;;;;;;;;;22.50;21.00;;;;;8.31;71.11;102502.78;5010696;28;11976;-67
2023/04/08 06:37:37;;;;;;;;;19.00;17.00;;;;;8.29;71.49;102510.09;4994394;28;11551;-67
2023/04/08 06:40:05;;;;;;;;;20.50;18.00;;;;;8.32;71.11;102511.69;5011697;28;11492;-67
2023/04/08 06:42:31;;;;;;;;;22.00;19.50;;;;;8.31;70.73;102512.66;5006060;28;11547;-66
2023/04/08 06:45:07;;;;;;;;;26.50;22.50;;;;;8.30;70.18;102511.78;4994040;28;11350;-66
2023/04/08 06:47:34;;;;;;;;;22.75;20.00;;;;;8.25;70.11;102515.91;4994185;28;11589;-66
2023/04/08 06:50:00;;;;;;;;;22.50;19.25;;;;;8.22;69.69;102514.31;5011083;28;11530;-66
2023/04/08 06:52:27;;;;;;;;;19.25;16.00;;;;;8.25;70.58;102516.72;5010739;28;11672;-66
2023/04/08 06:54:53;;;;;;;;;24.25;16.50;;;;;8.35;70.18;102517.63;5004863;28;11846;-66
2023/04/08 06:57:20;;;;;;;;;20.75;17.50;;;;;8.43;69.87;102522.31;5010861;28;11443;-67
2023/04/08 06:59:46;;;;;;;;;23.75;18.00;;;;;8.52;69.67;102524.16;5008111;28;11165;-67
2023/04/08 07:02:13;;;;;;;;;19.50;19.25;;;;;8.53;68.00;102528.53;5007644;28;11251;-67
2023/04/08 07:04:39;;;;;;;;;22.50;18.75;;;;;8.65;68.26;102526.56;5010880;28;11318;-68
2023/04/08 07:07:06;;;;;;;;;24.75;18.00;;;;;8.78;67.23;102540.56;4988826;28;11082;-66
2023/04/08 07:09:32;;;;;;;;;16.75;16.75;;;;;8.75;66.46;102532.81;4999798;28;11302;-67
2023/04/08 07:11:59;;;;;;;;;17.00;15.75;;;;;8.79;66.64;102547.66;4999510;28;11160;-67
2023/04/08 07:14:25;;;;;;;;;18.50;17.00;;;;;8.82;65.79;102547.34;5001554;28;11091;-67
2023/04/08 07:16:52;;;;;;;;;18.50;18.50;;;;;8.94;65.81;102555.28;5001587;28;11936;-67
2023/04/08 07:19:18;;;;;;;;;17.25;14.50;;;;;8.94;65.64;102556.13;5004394;28;11888;-67
2023/04/08 07:21:45;;;;;;;;;17.75;15.75;;;;;9.00;66.17;102552.03;5000721;28;11056;-67
2023/04/08 07:24:11;;;;;;;;;26.75;19.75;;;;;9.00;65.53;102557.41;5003862;28;11001;-67
2023/04/08 07:26:38;;;;;;;;;22.75;20.25;;;;;9.06;64.84;102556.81;4999670;28;11266;-67
2023/04/08 07:29:04;;;;;;;;;23.00;18.25;;;;;8.98;63.91;102556.69;4984296;28;11280;-67
2023/04/08 07:31:30;;;;;;;;;21.75;16.75;;;;;8.95;63.35;102557.81;5008350;28;11014;-68
2023/04/08 07:33:58;;;;;;;;;23.50;21.50;;;;;8.82;62.57;102559.94;5010915;28;11252;-66
2023/04/08 07:36:24;;;;;;;;;23.00;20.75;;;;;8.72;62.36;102568.00;5010922;28;11319;-67
2023/04/08 07:38:51;;;;;;;;;16.25;15.00;;;;;8.75;63.31;102572.22;5007142;28;11108;-67
2023/04/08 07:41:17;;;;;;;;;15.00;15.00;;;;;8.83;63.20;102559.81;4992526;28;11016;-67
2023/04/08 07:43:44;;;;;;;;;17.75;17.50;;;;;8.78;63.71;102563.88;5010628;28;10852;-66
2023/04/08 07:46:11;;;;;;;;;18.50;18.50;;;;;8.90;64.45;102577.03;5008271;28;10918;-66
2023/04/08 07:48:37;;;;;;;;;20.75;19.00;;;;;8.98;63.82;102573.66;4992699;28;11006;-66
2023/04/08 07:51:07;;;;;;;;;21.00;18.25;;;;;9.00;63.51;102569.00;5010768;28;11009;-67
2023/04/08 07:53:37;;;;;;;;;21.75;20.75;;;;;9.00;61.91;102576.22;5010813;28;11065;-67
2023/04/08 07:56:10;;;;;;;;;20.00;17.50;;;;;8.94;62.79;102582.13;4992083;28;11024;-67
2023/04/08 07:58:37;;;;;;;;;24.75;20.50;;;;;8.98;62.98;102575.50;5009167;28;11243;-67
2023/04/08 08:01:04;;;;;;;;;13.75;13.00;;;;;9.00;63.27;102578.91;5009528;28;11071;-66
2023/04/08 08:03:30;;;;;;;;;20.00;18.00;;;;;9.05;62.59;102582.84;5006253;28;10862;-66
2023/04/08 08:05:59;;;;;;;;;20.25;17.75;;;;;9.10;62.40;102579.72;5012199;28;10818;-66
2023/04/08 08:08:26;;;;;;;;;23.75;22.50;;;;;9.22;62.76;102585.81;5012071;28;11050;-66
2023/04/08 08:10:53;;;;;;;;;19.00;17.50;;;;;9.37;62.73;102582.53;5011291;28;10761;-67
2023/04/08 08:13:20;;;;;;;;;15.25;14.50;;;;;9.55;61.83;102588.00;5011132;28;11619;-67
2023/04/08 08:15:51;;;;;;;;;21.00;20.00;;;;;9.70;61.93;102583.03;5013171;28;10915;-67
2023/04/08 08:18:18;;;;;;;;;13.25;12.50;;;;;9.76;62.15;102593.19;5013595;28;11190;-67
2023/04/08 08:20:44;;;;;;;;;15.50;14.00;;;;;9.83;61.44;102588.94;5012264;28;10893;-66
2023/04/08 08:23:11;;;;;;;;;21.75;18.00;;;;;9.87;62.40;102593.03;4995264;28;10576;-66
2023/04/08 08:25:37;;;;;;;;;17.50;17.00;;;;;9.76;60.97;102605.78;4992717;28;10673;-67
2023/04/08 08:28:04;;;;;;;;;18.00;16.25;;;;;9.58;61.70;102611.94;4992424;28;10938;-67
2023/04/08 08:30:30;;;;;;;;;24.50;21.50;;;;;9.46;61.53;102605.00;5010415;28;10986;-67
2023/04/08 08:33:00;;;;;;;;;16.25;16.25;;;;;9.39;61.18;102609.25;5010737;28;10973;-67
2023/04/08 08:35:27;;;;;;;;;20.25;19.00;;;;;9.19;61.74;102605.72;4993092;28;10786;-66
2023/04/08 08:37:54;;;;;;;;;17.50;16.50;;;;;9.25;61.69;102607.03;5010176;28;10761;-66
2023/04/08 08:40:20;;;;;;;;;17.50;16.00;;;;;9.37;63.20;102604.03;4991344;28;10980;-67
2023/04/08 08:42:51;;;;;;;;;14.25;14.25;;;;;9.65;62.34;102614.91;5010317;28;11009;-67
2023/04/08 08:45:21;;;;;;;;;16.50;15.75;;;;;9.70;61.71;102612.63;4992855;28;10850;-67
2023/04/08 08:47:47;;;;;;;;;18.25;17.25;;;;;9.76;61.48;102620.09;5010711;28;10981;-68
2023/04/08 08:50:17;;;;;;;;;17.00;17.00;;;;;9.81;61.32;102614.28;5006412;28;10927;-67
2023/04/08 08:52:51;;;;;;;;;17.00;15.75;;;;;9.90;61.66;102610.72;5005977;28;10858;-67
2023/04/08 08:55:21;;;;;;;;;24.50;19.50;;;;;9.98;60.51;102605.47;5010209;28;10844;-67
2023/04/08 08:58:07;;;;;;;;;19.50;17.00;;;;;9.93;62.22;102609.59;4992315;28;10819;-66
2023/04/08 09:00:35;;;;;;;;;18.50;18.50;;;;;10.02;64.06;102600.63;5007207;28;10854;-67
2023/04/08 09:03:22;;;;;;;;;22.50;20.25;;;;;10.24;63.32;102613.69;5009855;28;10805;-67
2023/04/08 09:05:51;;;;;;;;;22.00;19.50;;;;;10.38;62.07;102615.94;5005869;28;10929;-67
2023/04/08 09:08:25;;;;;;;;;21.25;17.00;;;;;10.48;61.20;102609.66;5010029;28;10762;-67
2023/04/08 09:10:52;;;;;;;;;20.25;18.50;;;;;10.49;61.74;102616.72;5009237;28;10659;-67
2023/04/08 09:13:21;;;;;;;;;20.50;18.50;;;;;10.67;60.56;102620.31;5009632;28;10819;-66
2023/04/08 09:16:03;;;;;;;;;15.25;14.50;;;;;10.86;60.46;102622.88;4996876;28;10577;-66
2023/04/08 09:18:32;;;;;;;;;16.00;14.75;;;;;11.01;59.50;102627.72;5009811;28;10597;-67
2023/04/08 09:21:00;;;;;;;;;21.50;19.25;;;;;11.11;59.26;102625.81;5008891;28;10518;-67
2023/04/08 09:23:44;;;;;;;;;26.00;21.75;;;;;11.13;56.13;102626.50;5009446;28;10625;-67
2023/04/08 09:26:15;;;;;;;;;27.50;23.75;;;;;10.92;57.80;102628.66;4990008;28;10604;-67
2023/04/08 09:28:43;;;;;;;;;21.00;20.00;;;;;10.88;57.46;102630.81;4991323;28;10822;-67
2023/04/08 09:31:21;;;;;;;;;18.50;17.75;;;;;10.89;57.51;102630.63;5009265;28;10480;-67
2023/04/08 09:34:08;;;;;;;;;16.00;15.00;;;;;10.94;57.17;102637.41;5008880;28;10686;-67
2023/04/08 09:36:34;;;;;;;;;20.00;19.75;;;;;11.00;54.83;102626.03;5011284;28;10611;-67
2023/04/08 09:39:01;;;;;;;;;18.50;15.75;;;;;10.96;55.78;102625.50;5012739;28;10630;-67
2023/04/08 09:41:28;;;;;;;;;19.50;17.75;;;;;11.04;55.96;102636.34;5012121;28;10617;-67
2023/04/08 09:43:55;;;;;;;;;22.75;18.75;;;;;11.14;55.89;102631.75;5012851;28;10639;-67
2023/04/08 09:46:49;;;;;;;;;16.50;16.00;;;;;11.20;56.61;102641.06;4994041;28;10585;-66
2023/04/08 09:49:37;;;;;;;;;25.00;18.50;;;;;11.21;56.55;102640.06;5004146;28;10431;-66
2023/04/08 09:52:06;;;;;;;;;24.00;19.75;;;;;11.17;55.86;102644.06;5006330;28;10582;-66
2023/04/08 09:54:53;;;;;;;;;23.50;22.25;;;;;11.15;56.86;102640.69;5012587;28;10716;-66
2023/04/08 09:57:38;;;;;;;;;23.50;19.50;;;;;11.22;56.52;102641.78;5012944;28;10340;-68
2023/04/08 10:00:16;;;;;;;;;23.00;18.00;;;;;11.38;56.82;102641.03;5012153;28;10471;-67
2023/04/08 10:03:01;;;;;;;;;26.25;21.00;;;;;11.63;56.57;102642.94;5006568;28;10517;-67
2023/04/08 10:05:30;;;;;;;;;25.75;24.00;;;;;11.65;54.48;102640.09;5012618;28;10443;-66
2023/04/08 10:07:59;;;;;;;;;28.25;23.25;;;;;11.55;55.10;102639.34;5013074;28;10609;-67
2023/04/08 10:10:26;;;;;;;;;24.50;20.00;;;;;11.36;55.06;102641.22;4993991;28;10660;-67
2023/04/08 10:12:53;;;;;;;;;27.00;22.50;;;;;11.19;52.70;102646.63;5012662;28;10497;-65
2023/04/08 10:15:23;;;;;;;;;18.75;18.00;;;;;11.06;52.54;102636.19;4993632;28;10721;-66
2023/04/08 10:17:51;;;;;;;;;21.00;19.00;;;;;10.96;53.03;102644.34;4991770;28;10592;-67
2023/04/08 10:20:33;;;;;;;;;17.00;17.00;;;;;11.17;53.41;102644.06;5012160;28;10691;-67
2023/04/08 10:23:00;;;;;;;;;16.50;15.00;;;;;11.47;53.25;102647.38;5012342;28;10679;-67
2023/04/08 10:25:46;;;;;;;;;17.50;17.25;;;;;11.71;52.87;102641.28;5011093;28;10536;-66
2023/04/08 10:28:14;;;;;;;;;15.00;12.75;;;;;11.85;51.62;102643.47;5007758;28;10368;-67
2023/04/08 10:30:42;;;;;;;;;17.00;17.00;;;;;11.91;50.57;102641.97;5011478;28;10323;-67
2023/04/08 10:33:23;;;;;;;;;19.75;15.50;;;;;11.93;50.61;102642.69;5011891;28;10518;-67
2023/04/08 10:35:58;;;;;;;;;14.50;14.50;;;;;12.04;50.78;102642.41;5010551;28;10608;-67
2023/04/08 10:38:24;;;;;;;;;17.25;17.25;;;;;12.01;48.49;102648.97;4994638;28;10538;-67
2023/04/08 10:40:53;;;;;;;;;16.00;16.00;;;;;12.00;50.51;102641.03;5011684;28;10441;-67
2023/04/08 10:43:19;;;;;;;;;19.00;17.00;;;;;12.11;50.62;102635.34;5011904;28;10402;-67
2023/04/08 10:45:49;;;;;;;;;17.00;17.00;;;;;12.23;50.56;102631.34;5006962;28;10327;-67
2023/04/08 10:48:19;;;;;;;;;16.75;16.25;;;;;12.40;48.54;102631.44;5006646;28;10280;-67
2023/04/08 10:50:53;;;;;;;;;17.75;16.75;;;;;12.33;48.59;102637.50;5011419;28;10389;-66
2023/04/08 10:53:29;;;;;;;;;19.50;17.50;;;;;12.00;46.78;102636.50;5011570;28;10267;-66
2023/04/08 10:56:05;;;;;;;;;22.25;19.50;;;;;11.79;47.97;102634.13;5009877;28;11732;-66
2023/04/08 10:58:32;;;;;;;;;18.25;18.00;;;;;11.66;47.18;102633.69;5007192;28;10546;-68
2023/04/08 11:01:07;;;;;;;;;19.00;18.00;;;;;11.70;48.47;102629.66;4977689;28;10350;-66
2023/04/08 11:03:35;;;;;;;;;17.75;16.75;;;;;11.77;48.14;102622.63;5011589;28;10288;-67
2023/04/08 11:06:03;;;;;;;;;16.75;13.50;;;;;11.98;49.27;102618.75;5006790;28;10379;-67
2023/04/08 11:08:31;;;;;;;;;13.75;13.00;;;;;12.10;47.90;102617.47;5010667;28;10257;-66
2023/04/08 11:11:02;;;;;;;;;18.50;14.00;;;;;12.28;48.00;102618.25;5009022;28;10296;-68
2023/04/08 11:13:30;;;;;;;;;19.00;15.00;;;;;12.33;48.21;102618.59;5011552;28;10282;-67
2023/04/08 11:15:58;;;;;;;;;13.00;13.00;;;;;12.46;49.27;102622.69;5010491;28;10380;-67
2023/04/08 11:18:26;;;;;;;;;19.25;14.75;;;;;12.59;49.57;102618.50;5007936;28;10150;-67
2023/04/08 11:20:53;;;;;;;;;17.75;17.75;;;;;12.59;49.11;102618.50;5004601;28;10276;-67